Time;durP1;ratioP1;P1;durP2;ratioP2;P2;SDS_P1;SDS_P2;PMS_P1;PMS_P2;Temp;Humidity;BMP_temperature;BMP_pressure;BME280_temperature;BME280_humidity;BME280_pressure;Samples;Min_cycle;Max_cycle;Signal;HPM_P1;HPM_P2
2021/03/12 00:02:04;;;;;;;;;;;12.90;66.90;;;;;;4952935;28;75094;-67
2021/03/12 00:04:29;;;;;;;;;;;12.90;67.00;;;;;;4952417;28;75126;-68
2021/03/12 00:06:55;;;;;;;;;;;12.90;66.20;;;;;;4952640;28;75381;-68
2021/03/12 00:09:20;;;;;;;;;;;12.90;66.90;;;;;;4952776;28;75005;-71
2021/03/12 00:11:46;;;;;;;;;;;12.90;66.90;;;;;;4952564;28;74950;-69
2021/03/12 00:14:12;;;;;;;;;;;12.90;67.80;;;;;;4952113;28;76823;-69
2021/03/12 00:16:37;;;;;;;;;;;12.90;67.60;;;;;;4952342;28;75647;-69
2021/03/12 00:19:03;;;;;;;;;;;12.80;67.10;;;;;;4950687;28;74693;-68
2021/03/12 00:21:29;;;;;;;;;;;12.80;67.30;;;;;;4950677;28;75338;-76
2021/03/12 00:23:55;;;;;;;;;;;12.80;68.30;;;;;;4951303;28;76340;-74
2021/03/12 00:26:21;;;;;;;;;;;12.80;68.50;;;;;;4950857;28;77286;-73
2021/03/12 00:28:46;;;;;;;;;;;12.70;69.20;;;;;;4949586;28;77232;-72
2021/03/12 00:31:12;;;;;;;;;;;12.70;68.50;;;;;;4950596;28;77765;-77
2021/03/12 00:33:38;;;;;;;;;;;12.60;68.30;;;;;;4950411;28;74699;-80
2021/03/12 00:36:05;;;;;;;;;;;12.60;68.00;;;;;;4950788;28;77194;-76
2021/03/12 00:38:30;;;;;;;;;;;12.60;67.90;;;;;;4951734;28;75198;-75
2021/03/12 00:40:57;;;;;;;;;;;12.60;67.50;;;;;;4951973;28;75258;-77
2021/03/12 00:43:23;;;;;;;;;;;12.60;68.10;;;;;;4951541;28;75268;-79
2021/03/12 00:45:50;;;;;;;;;;;12.60;69.20;;;;;;4952888;28;74626;-77
2021/03/12 00:48:16;;;;;;;;;;;12.50;68.80;;;;;;4952409;28;75485;-83
2021/03/12 00:50:42;;;;;;;;;;;12.50;68.80;;;;;;4950223;28;77131;-77
2021/03/12 00:53:08;;;;;;;;;;;12.50;68.60;;;;;;4951800;28;75102;-69
2021/03/12 00:55:34;;;;;;;;;;;12.40;68.50;;;;;;4951528;28;75170;-79
2021/03/12 00:58:00;;;;;;;;;;;12.50;68.60;;;;;;4951521;28;74415;-73
2021/03/12 01:00:27;;;;;;;;;;;12.40;68.40;;;;;;4952073;28;74535;-74
2021/03/12 01:02:52;;;;;;;;;;;12.50;68.50;;;;;;4950365;28;77306;-83
2021/03/12 01:05:18;;;;;;;;;;;12.40;68.30;;;;;;4951760;28;75169;-71
2021/03/12 01:07:44;;;;;;;;;;;12.40;68.10;;;;;;4951286;28;75229;-80
2021/03/12 01:10:10;;;;;;;;;;;12.40;68.60;;;;;;4951449;28;75244;-76
2021/03/12 01:12:36;;;;;;;;;;;12.40;68.70;;;;;;4951221;28;74467;-79
2021/03/12 01:15:06;;;;;;;;;;;12.40;68.90;;;;;;4951447;28;74842;-81
2021/03/12 01:17:31;;;;;;;;;;;12.30;69.00;;;;;;4951463;28;75512;-73
2021/03/12 01:19:57;;;;;;;;;;;12.40;68.90;;;;;;4949391;28;78365;-74
2021/03/12 01:22:23;;;;;;;;;;;12.40;68.90;;;;;;4949907;28;74734;-70
2021/03/12 01:24:48;;;;;;;;;;;12.30;68.90;;;;;;4951170;28;74497;-70
2021/03/12 01:27:14;;;;;;;;;;;12.30;69.00;;;;;;4950965;28;74943;-70
2021/03/12 01:29:39;;;;;;;;;;;12.30;69.00;;;;;;4949521;28;75254;-70
2021/03/12 01:32:05;;;;;;;;;;;12.30;69.00;;;;;;4949831;28;75361;-66
2021/03/12 01:34:31;;;;;;;;;;;12.20;69.20;;;;;;4951679;28;74461;-67
2021/03/12 01:36:56;;;;;;;;;;;12.20;69.10;;;;;;4950960;28;75006;-70
2021/03/12 01:39:22;;;;;;;;;;;12.30;69.30;;;;;;4950749;28;75205;-66
2021/03/12 01:41:48;;;;;;;;;;;12.30;69.20;;;;;;4949780;28;76371;-70
2021/03/12 01:44:14;;;;;;;;;;;12.40;69.20;;;;;;4951435;28;74470;-69
2021/03/12 01:46:40;;;;;;;;;;;12.40;68.90;;;;;;4949723;28;77738;-68
2021/03/12 01:49:05;;;;;;;;;;;12.40;68.70;;;;;;4949521;28;77851;-72
2021/03/12 01:51:33;;;;;;;;;;;12.50;68.60;;;;;;4951338;28;74400;-66
2021/03/12 01:53:59;;;;;;;;;;;12.60;68.60;;;;;;4948964;28;77471;-66
2021/03/12 01:56:24;;;;;;;;;;;12.60;68.30;;;;;;4949342;28;74529;-66
2021/03/12 01:58:50;;;;;;;;;;;12.50;68.20;;;;;;4950570;28;75384;-70
2021/03/12 02:01:15;;;;;;;;;;;12.50;68.30;;;;;;4949450;28;76343;-68
2021/03/12 02:03:41;;;;;;;;;;;12.40;68.20;;;;;;4951173;28;75267;-67
2021/03/12 02:06:07;;;;;;;;;;;12.40;68.40;;;;;;4950873;28;75832;-68
2021/03/12 02:08:32;;;;;;;;;;;12.30;68.80;;;;;;4949590;28;75481;-67
2021/03/12 02:10:58;;;;;;;;;;;12.20;69.30;;;;;;4951551;28;75158;-67
2021/03/12 02:13:39;;;;;;;;;;;12.20;69.40;;;;;;4950418;28;75388;-71
2021/03/12 02:16:18;;;;;;;;;;;12.10;69.50;;;;;;4951365;28;74601;-70
2021/03/12 02:18:57;;;;;;;;;;;12.10;69.60;;;;;;4950663;28;75257;-70
2021/03/12 02:21:34;;;;;;;;;;;12.00;69.50;;;;;;4949272;28;74591;-71
2021/03/12 02:24:18;;;;;;;;;;;12.00;69.60;;;;;;4950711;28;75126;-69
2021/03/12 02:26:44;;;;;;;;;;;12.00;69.80;;;;;;4950638;28;74384;-71
2021/03/12 02:29:19;;;;;;;;;;;11.90;69.50;;;;;;4949103;28;76826;-67
2021/03/12 02:31:44;;;;;;;;;;;11.90;69.70;;;;;;4950900;28;74788;-74
2021/03/12 02:34:11;;;;;;;;;;;11.90;69.80;;;;;;4950299;28;75546;-67
2021/03/12 02:36:38;;;;;;;;;;;11.90;69.60;;;;;;4950817;28;75405;-67
2021/03/12 02:39:06;;;;;;;;;;;11.80;69.80;;;;;;4950252;28;75120;-68
2021/03/12 02:41:31;;;;;;;;;;;11.80;70.00;;;;;;4949103;28;77444;-67
2021/03/12 02:43:57;;;;;;;;;;;11.80;70.10;;;;;;4950495;28;75381;-66
2021/03/12 02:46:24;;;;;;;;;;;11.80;70.00;;;;;;4950203;28;75068;-70
2021/03/12 02:48:50;;;;;;;;;;;11.70;70.20;;;;;;4949982;28;75186;-73
2021/03/12 02:51:16;;;;;;;;;;;11.70;70.30;;;;;;4949820;28;75538;-69
2021/03/12 02:53:42;;;;;;;;;;;11.60;70.30;;;;;;4952653;28;74793;-72
2021/03/12 02:56:08;;;;;;;;;;;11.60;70.20;;;;;;4952789;28;74894;-65
2021/03/12 02:58:35;;;;;;;;;;;11.60;70.30;;;;;;4952995;28;75064;-71
2021/03/12 03:01:10;;;;;;;;;;;11.60;70.40;;;;;;4951393;28;76401;-70
2021/03/12 03:03:36;;;;;;;;;;;11.50;70.70;;;;;;4952891;28;75126;-67
2021/03/12 03:06:03;;;;;;;;;;;11.50;70.70;;;;;;4952993;28;74969;-75
2021/03/12 03:08:29;;;;;;;;;;;11.50;70.60;;;;;;4953019;28;75739;-71
2021/03/12 03:10:59;;;;;;;;;;;11.50;70.90;;;;;;4952904;28;75176;-74
2021/03/12 03:13:35;;;;;;;;;;;11.50;70.80;;;;;;4952760;28;75016;-69
2021/03/12 03:16:01;;;;;;;;;;;11.50;70.80;;;;;;4951377;28;77291;-70
2021/03/12 03:18:28;;;;;;;;;;;11.40;70.70;;;;;;4953120;28;75514;-67
2021/03/12 03:20:55;;;;;;;;;;;11.40;70.80;;;;;;4952824;28;75234;-70
2021/03/12 03:23:20;;;;;;;;;;;11.40;71.10;;;;;;4951170;28;78629;-70
2021/03/12 03:25:46;;;;;;;;;;;11.40;71.20;;;;;;4953261;28;74685;-70
2021/03/12 03:28:11;;;;;;;;;;;11.40;71.30;;;;;;4952672;28;75046;-68
2021/03/12 03:30:37;;;;;;;;;;;11.30;71.30;;;;;;4951376;28;75623;-72
2021/03/12 03:33:03;;;;;;;;;;;11.20;71.50;;;;;;4952998;28;74916;-71
2021/03/12 03:35:28;;;;;;;;;;;11.30;71.50;;;;;;4952726;28;74989;-65
2021/03/12 03:37:54;;;;;;;;;;;11.20;71.50;;;;;;4952783;28;74694;-72
2021/03/12 03:40:20;;;;;;;;;;;11.20;71.50;;;;;;4952886;28;75008;-77
2021/03/12 03:42:46;;;;;;;;;;;11.20;71.60;;;;;;4952317;28;75220;-73
2021/03/12 03:45:12;;;;;;;;;;;11.20;71.60;;;;;;4952102;28;75499;-72
2021/03/12 03:47:38;;;;;;;;;;;11.10;71.60;;;;;;4952499;28;74524;-67
2021/03/12 03:50:05;;;;;;;;;;;11.20;71.60;;;;;;4952585;28;74560;-66
2021/03/12 03:52:31;;;;;;;;;;;11.20;71.60;;;;;;4952487;28;77112;-68
2021/03/12 03:54:57;;;;;;;;;;;11.20;71.50;;;;;;4952303;28;75329;-66
2021/03/12 03:57:23;;;;;;;;;;;11.20;71.60;;;;;;4952263;28;75137;-70
2021/03/12 03:59:49;;;;;;;;;;;11.20;71.60;;;;;;4951118;28;77304;-69
2021/03/12 04:02:16;;;;;;;;;;;11.20;71.60;;;;;;4952237;28;75197;-70
2021/03/12 04:04:46;;;;;;;;;;;11.10;71.70;;;;;;4952213;28;75094;-77
2021/03/12 04:07:12;;;;;;;;;;;11.10;71.90;;;;;;4952548;28;75161;-68
2021/03/12 04:09:38;;;;;;;;;;;11.10;72.10;;;;;;4952454;28;75200;-66
2021/03/12 04:12:05;;;;;;;;;;;11.00;72.20;;;;;;4954297;28;75136;-65
2021/03/12 04:14:31;;;;;;;;;;;11.00;72.10;;;;;;4953483;28;74766;-73
2021/03/12 04:16:57;;;;;;;;;;;11.10;72.10;;;;;;4951943;28;75170;-66
2021/03/12 04:19:23;;;;;;;;;;;11.10;72.00;;;;;;4950956;28;76352;-72
2021/03/12 04:21:48;;;;;;;;;;;11.00;71.90;;;;;;4951752;28;75536;-68
2021/03/12 04:24:14;;;;;;;;;;;11.00;71.80;;;;;;4952228;28;75336;-78
2021/03/12 04:26:40;;;;;;;;;;;11.00;71.90;;;;;;4952535;28;74646;-68
2021/03/12 04:29:07;;;;;;;;;;;10.90;72.00;;;;;;4951926;28;75128;-69
2021/03/12 04:31:32;;;;;;;;;;;10.90;72.10;;;;;;4952268;28;74382;-68
2021/03/12 04:33:58;;;;;;;;;;;10.90;72.50;;;;;;4951914;28;75217;-70
2021/03/12 04:36:24;;;;;;;;;;;10.90;72.60;;;;;;4951957;28;74916;-78
2021/03/12 04:38:50;;;;;;;;;;;11.00;72.60;;;;;;4951983;28;75072;-76
2021/03/12 04:41:16;;;;;;;;;;;11.00;73.10;;;;;;4951781;28;75252;-71
2021/03/12 04:43:41;;;;;;;;;;;10.90;74.00;;;;;;4951773;28;74435;-67
2021/03/12 04:46:07;;;;;;;;;;;10.90;73.90;;;;;;4952212;28;75492;-75
2021/03/12 04:48:34;;;;;;;;;;;10.80;76.30;;;;;;4951760;28;75142;-72
2021/03/12 04:51:00;;;;;;;;;;;10.80;75.60;;;;;;4951680;28;75217;-69
2021/03/12 04:53:30;;;;;;;;;;;10.80;75.10;;;;;;4950407;28;77607;-69
2021/03/12 04:55:56;;;;;;;;;;;10.80;75.60;;;;;;4950560;28;77314;-73
2021/03/12 04:58:22;;;;;;;;;;;10.70;75.40;;;;;;4951296;28;75209;-66
2021/03/12 05:00:48;;;;;;;;;;;10.70;75.20;;;;;;4950152;28;76350;-67
2021/03/12 05:03:14;;;;;;;;;;;10.70;74.90;;;;;;4951845;28;74568;-66
2021/03/12 05:05:40;;;;;;;;;;;10.80;74.80;;;;;;4951684;28;75060;-67
2021/03/12 05:08:09;;;;;;;;;;;10.90;74.80;;;;;;4950095;28;76530;-74
2021/03/12 05:10:35;;;;;;;;;;;10.90;74.30;;;;;;4951489;28;75249;-64
2021/03/12 05:13:03;;;;;;;;;;;10.90;74.20;;;;;;4951797;28;75216;-65
2021/03/12 05:15:28;;;;;;;;;;;10.80;74.40;;;;;;4950437;28;75035;-66
2021/03/12 05:17:54;;;;;;;;;;;10.80;74.90;;;;;;4951543;28;75314;-67
2021/03/12 05:20:20;;;;;;;;;;;10.70;75.30;;;;;;4949776;28;76295;-65
2021/03/12 05:22:45;;;;;;;;;;;10.60;75.40;;;;;;4951492;28;75100;-69
2021/03/12 05:25:11;;;;;;;;;;;10.60;76.10;;;;;;4949753;28;76468;-68
2021/03/12 05:27:36;;;;;;;;;;;10.50;76.30;;;;;;4949819;28;77822;-72
2021/03/12 05:30:02;;;;;;;;;;;10.50;76.10;;;;;;4951682;28;75031;-67
2021/03/12 05:32:28;;;;;;;;;;;10.60;76.30;;;;;;4949867;28;77130;-67
2021/03/12 05:34:54;;;;;;;;;;;10.60;76.50;;;;;;4951527;28;75040;-68
2021/03/12 05:37:19;;;;;;;;;;;10.60;76.30;;;;;;4949440;28;75358;-70
2021/03/12 05:39:45;;;;;;;;;;;10.60;76.00;;;;;;4950072;28;75448;-79
2021/03/12 05:42:12;;;;;;;;;;;10.70;75.80;;;;;;4949534;28;75907;-67
2021/03/12 05:44:38;;;;;;;;;;;10.80;75.60;;;;;;4950006;28;75429;-70
2021/03/12 05:47:05;;;;;;;;;;;10.90;75.50;;;;;;4951370;28;75067;-68
2021/03/12 05:49:32;;;;;;;;;;;10.90;75.30;;;;;;4950941;28;75218;-66
2021/03/12 05:51:58;;;;;;;;;;;11.10;75.20;;;;;;4951511;28;75670;-68
2021/03/12 05:54:23;;;;;;;;;;;11.10;75.40;;;;;;4950576;28;75189;-73
2021/03/12 05:56:49;;;;;;;;;;;11.20;74.90;;;;;;4950939;28;75191;-66
2021/03/12 05:59:14;;;;;;;;;;;11.20;75.00;;;;;;4949639;28;74863;-66
2021/03/12 06:01:40;;;;;;;;;;;11.20;75.10;;;;;;4950644;28;75258;-67
2021/03/12 06:04:06;;;;;;;;;;;11.30;74.80;;;;;;4951200;28;75368;-67
2021/03/12 06:06:34;;;;;;;;;;;11.30;74.50;;;;;;4951130;28;75089;-69
2021/03/12 06:09:02;;;;;;;;;;;11.40;74.30;;;;;;4949428;28;76589;-66
2021/03/12 06:11:28;;;;;;;;;;;11.40;74.50;;;;;;4951906;28;75264;-66
2021/03/12 06:13:54;;;;;;;;;;;11.40;74.40;;;;;;4949549;28;75418;-70
2021/03/12 06:16:27;;;;;;;;;;;11.40;74.20;;;;;;4951279;28;74580;-66
2021/03/12 06:19:11;;;;;;;;;;;11.50;73.90;;;;;;4950692;28;75606;-68
2021/03/12 06:21:37;;;;;;;;;;;11.40;73.70;;;;;;4951217;28;75016;-72
2021/03/12 06:24:23;;;;;;;;;;;11.50;73.60;;;;;;4950683;28;74577;-71
2021/03/12 06:26:50;;;;;;;;;;;11.60;73.60;;;;;;4955095;28;74784;-72
2021/03/12 06:29:16;;;;;;;;;;;11.60;73.30;;;;;;4949600;28;76608;-77
2021/03/12 06:31:51;;;;;;;;;;;11.60;73.40;;;;;;4951883;28;74999;-72
2021/03/12 06:34:17;;;;;;;;;;;11.60;73.20;;;;;;4940924;28;75591;-67
2021/03/12 06:36:43;;;;;;;;;;;11.50;73.40;;;;;;4930744;28;76447;-69
2021/03/12 06:39:09;;;;;;;;;;;11.50;73.50;;;;;;4928063;28;76197;-69
2021/03/12 06:41:36;;;;;;;;;;;11.40;73.40;;;;;;4930262;28;79321;-69
2021/03/12 06:44:21;;;;;;;;;;;11.40;73.40;;;;;;4932235;28;76011;-70
2021/03/12 06:46:47;;;;;;;;;;;11.40;73.40;;;;;;4923594;28;77338;-71
2021/03/12 06:49:13;;;;;;;;;;;11.30;73.60;;;;;;4926673;28;76506;-69
2021/03/12 06:51:52;;;;;;;;;;;11.30;73.70;;;;;;4922935;28;78047;-70
2021/03/12 06:54:18;;;;;;;;;;;11.40;73.70;;;;;;4922489;28;76028;-70
2021/03/12 06:56:43;;;;;;;;;;;11.40;73.70;;;;;;4913853;28;75867;-70
2021/03/12 06:59:09;;;;;;;;;;;11.50;73.60;;;;;;4924335;28;76991;-70
2021/03/12 07:01:35;;;;;;;;;;;11.50;73.40;;;;;;4934005;28;76726;-64
2021/03/12 07:04:07;;;;;;;;;;;11.50;73.40;;;;;;4935225;28;76874;-67
2021/03/12 07:06:42;;;;;;;;;;;11.60;73.20;;;;;;4937087;28;76448;-65
2021/03/12 07:09:07;;;;;;;;;;;11.60;72.90;;;;;;4931365;28;76446;-66
2021/03/12 07:11:33;;;;;;;;;;;11.70;72.70;;;;;;4934481;28;77382;-65
2021/03/12 07:13:58;;;;;;;;;;;11.60;72.60;;;;;;4918213;28;76085;-64
2021/03/12 07:16:25;;;;;;;;;;;11.50;72.50;;;;;;4916861;28;76291;-65
2021/03/12 07:18:52;;;;;;;;;;;11.50;72.60;;;;;;4916902;28;76251;-65
2021/03/12 07:21:19;;;;;;;;;;;11.50;72.60;;;;;;4920158;28;75761;-64
2021/03/12 07:23:46;;;;;;;;;;;11.50;72.80;;;;;;4928130;28;76660;-67
2021/03/12 07:26:13;;;;;;;;;;;11.40;73.00;;;;;;4923040;28;76599;-65
2021/03/12 07:28:43;;;;;;;;;;;11.40;73.00;;;;;;4926607;28;75195;-64
2021/03/12 07:31:09;;;;;;;;;;;11.40;73.00;;;;;;4916367;28;76484;-65
2021/03/12 07:33:35;;;;;;;;;;;11.40;73.30;;;;;;4917875;28;75982;-65
2021/03/12 07:36:02;;;;;;;;;;;11.40;73.40;;;;;;4928222;28;77358;-65
2021/03/12 07:38:30;;;;;;;;;;;11.40;73.50;;;;;;4927899;28;75953;-65
2021/03/12 07:40:56;;;;;;;;;;;11.60;74.20;;;;;;4930737;28;76287;-64
2021/03/12 07:43:22;;;;;;;;;;;11.80;74.30;;;;;;4924420;28;75962;-64
2021/03/12 07:45:47;;;;;;;;;;;11.80;73.20;;;;;;4919783;28;76061;-63
2021/03/12 07:48:14;;;;;;;;;;;11.90;72.70;;;;;;4932585;28;75915;-64
2021/03/12 07:50:40;;;;;;;;;;;11.90;72.60;;;;;;4938161;28;76582;-64
2021/03/12 07:53:06;;;;;;;;;;;12.00;72.20;;;;;;4938147;28;76021;-64
2021/03/12 07:55:35;;;;;;;;;;;12.10;71.90;;;;;;4938636;28;76957;-64
2021/03/12 07:58:04;;;;;;;;;;;12.00;71.90;;;;;;4927779;28;75491;-65
2021/03/12 08:00:30;;;;;;;;;;;11.90;72.50;;;;;;4923792;28;76050;-65
2021/03/12 08:02:57;;;;;;;;;;;12.00;72.40;;;;;;4924804;28;76338;-64
2021/03/12 08:05:29;;;;;;;;;;;12.20;72.10;;;;;;4918423;28;76527;-66
2021/03/12 08:07:54;;;;;;;;;;;12.30;71.60;;;;;;4919812;28;76279;-65
2021/03/12 08:10:22;;;;;;;;;;;12.30;71.40;;;;;;4934251;28;74716;-65
2021/03/12 08:12:49;;;;;;;;;;;12.40;71.00;;;;;;4933267;28;75669;-64
2021/03/12 08:15:25;;;;;;;;;;;12.40;71.10;;;;;;4934604;28;75380;-64
2021/03/12 08:17:56;;;;;;;;;;;12.30;71.20;;;;;;4935290;28;76516;-64
2021/03/12 08:20:25;;;;;;;;;;;12.40;71.30;;;;;;4922368;28;76284;-65
2021/03/12 08:22:51;;;;;;;;;;;12.50;71.10;;;;;;4919602;28;77179;-65
2021/03/12 08:25:37;;;;;;;;;;;12.70;70.40;;;;;;4922403;28;75862;-65
2021/03/12 08:28:22;;;;;;;;;;;13.00;69.30;;;;;;4917155;28;75876;-66
2021/03/12 08:30:55;;;;;;;;;;;13.00;67.10;;;;;;4922257;28;76380;-64
2021/03/12 08:33:20;;;;;;;;;;;13.00;67.80;;;;;;4932797;28;76694;-64
2021/03/12 08:35:46;;;;;;;;;;;12.90;67.40;;;;;;4918714;28;76641;-65
2021/03/12 08:38:21;;;;;;;;;;;12.60;67.70;;;;;;4925655;28;76620;-64
2021/03/12 08:40:54;;;;;;;;;;;12.40;68.30;;;;;;4930524;28;76196;-64
2021/03/12 08:43:20;;;;;;;;;;;12.40;68.70;;;;;;4918626;28;75867;-64
2021/03/12 08:45:49;;;;;;;;;;;12.40;68.70;;;;;;4930107;28;76538;-64
2021/03/12 08:48:19;;;;;;;;;;;12.40;68.90;;;;;;4937907;28;76139;-65
2021/03/12 08:50:52;;;;;;;;;;;12.50;68.50;;;;;;4925798;28;76429;-66
2021/03/12 08:53:20;;;;;;;;;;;12.60;68.50;;;;;;4925560;28;75858;-63
2021/03/12 08:55:47;;;;;;;;;;;12.80;67.90;;;;;;4925416;28;76540;-65
2021/03/12 08:58:20;;;;;;;;;;;12.80;67.30;;;;;;4923593;28;75838;-64
2021/03/12 09:00:47;;;;;;;;;;;12.90;66.90;;;;;;4934297;28;75900;-65
2021/03/12 09:03:17;;;;;;;;;;;12.90;66.70;;;;;;4929911;28;76658;-66
2021/03/12 09:05:43;;;;;;;;;;;12.90;66.30;;;;;;4936416;28;76936;-65
2021/03/12 09:08:09;;;;;;;;;;;12.90;66.30;;;;;;4935752;28;76317;-66
2021/03/12 09:10:35;;;;;;;;;;;13.00;65.30;;;;;;4937609;28;76161;-65
2021/03/12 09:13:01;;;;;;;;;;;13.10;64.80;;;;;;4936600;28;76032;-64
2021/03/12 09:15:28;;;;;;;;;;;13.20;64.20;;;;;;4934479;28;95804;-65
2021/03/12 09:17:57;;;;;;;;;;;13.40;63.60;;;;;;4937897;28;76240;-65
2021/03/12 09:20:23;;;;;;;;;;;13.50;63.50;;;;;;4925425;28;76454;-64
2021/03/12 09:22:49;;;;;;;;;;;13.60;62.40;;;;;;4936156;28;77060;-65
2021/03/12 09:25:22;;;;;;;;;;;13.70;61.90;;;;;;4918732;28;75190;-64
2021/03/12 09:28:01;;;;;;;;;;;13.90;60.00;;;;;;4918429;28;76166;-66
2021/03/12 09:30:35;;;;;;;;;;;13.90;60.00;;;;;;4920098;28;75957;-67
2021/03/12 09:33:00;;;;;;;;;;;14.10;56.00;;;;;;4918046;28;76174;-66
2021/03/12 09:35:26;;;;;;;;;;;14.30;56.20;;;;;;4926486;28;76670;-65
2021/03/12 09:37:52;;;;;;;;;;;14.50;54.90;;;;;;4924315;28;76337;-64
2021/03/12 09:40:28;;;;;;;;;;;14.70;53.00;;;;;;4921608;28;76559;-65
2021/03/12 09:42:53;;;;;;;;;;;15.00;53.70;;;;;;4932742;28;78341;-63
2021/03/12 09:45:23;;;;;;;;;;;15.40;49.70;;;;;;4923952;28;76140;-64
2021/03/12 09:47:50;;;;;;;;;;;15.50;50.90;;;;;;4918292;28;75970;-65
2021/03/12 09:50:16;;;;;;;;;;;15.70;46.50;;;;;;4918295;28;75266;-64
2021/03/12 09:52:42;;;;;;;;;;;15.60;46.80;;;;;;4931753;28;76821;-64
2021/03/12 09:55:08;;;;;;;;;;;15.70;47.30;;;;;;4931084;28;78016;-64
2021/03/12 09:57:35;;;;;;;;;;;15.90;48.40;;;;;;4934992;28;76266;-63
2021/03/12 10:00:01;;;;;;;;;;;16.20;44.60;;;;;;4919238;28;76370;-65
2021/03/12 10:02:27;;;;;;;;;;;16.10;42.90;;;;;;4934982;28;76621;-66
2021/03/12 10:04:57;;;;;;;;;;;16.10;43.60;;;;;;4935270;28;76251;-65
2021/03/12 10:07:23;;;;;;;;;;;16.10;44.70;;;;;;4934433;28;76512;-64
2021/03/12 10:09:49;;;;;;;;;;;16.30;45.50;;;;;;4925455;28;76576;-64
2021/03/12 10:12:23;;;;;;;;;;;16.40;43.40;;;;;;4920383;28;76129;-64
2021/03/12 10:15:08;;;;;;;;;;;16.40;43.20;;;;;;4923529;28;76453;-65
2021/03/12 10:17:35;;;;;;;;;;;16.30;44.90;;;;;;4920082;28;75805;-64
2021/03/12 10:20:04;;;;;;;;;;;16.40;44.30;;;;;;4933127;28;77011;-63
2021/03/12 10:22:30;;;;;;;;;;;16.40;44.10;;;;;;4929446;28;76448;-64
2021/03/12 10:25:08;;;;;;;;;;;16.50;44.30;;;;;;4917210;28;76442;-64
2021/03/12 10:27:35;;;;;;;;;;;16.80;43.20;;;;;;4918946;28;76243;-67
2021/03/12 10:30:20;;;;;;;;;;;17.00;42.30;;;;;;4934168;28;76351;-63
2021/03/12 10:32:47;;;;;;;;;;;17.20;42.40;;;;;;4929416;28;75141;-64
2021/03/12 10:35:15;;;;;;;;;;;17.30;42.00;;;;;;4919414;28;76571;-65
2021/03/12 10:37:41;;;;;;;;;;;17.40;41.60;;;;;;4929706;28;76398;-66
2021/03/12 10:40:07;;;;;;;;;;;17.80;41.30;;;;;;4919376;28;76071;-64
2021/03/12 10:42:33;;;;;;;;;;;18.20;41.30;;;;;;4916183;28;76462;-65
2021/03/12 10:45:00;;;;;;;;;;;18.50;39.90;;;;;;4917459;28;75224;-67
2021/03/12 10:47:26;;;;;;;;;;;18.90;40.60;;;;;;4926210;28;76409;-64
2021/03/12 10:49:52;;;;;;;;;;;19.00;39.80;;;;;;4927064;28;76055;-64
2021/03/12 10:52:21;;;;;;;;;;;19.10;37.10;;;;;;4921898;28;76275;-64
2021/03/12 10:54:47;;;;;;;;;;;18.90;37.80;;;;;;4919497;28;79700;-65
2021/03/12 10:57:12;;;;;;;;;;;18.60;37.80;;;;;;4927953;28;76802;-64
2021/03/12 10:59:52;;;;;;;;;;;18.60;36.90;;;;;;4924748;28;78287;-71
2021/03/12 11:02:17;;;;;;;;;;;18.50;39.20;;;;;;4927214;28;76778;-70
2021/03/12 11:04:43;;;;;;;;;;;18.50;40.10;;;;;;4930151;28;76331;-69
2021/03/12 11:07:10;;;;;;;;;;;18.60;38.80;;;;;;4928291;28;75832;-71
2021/03/12 11:09:35;;;;;;;;;;;18.80;39.50;;;;;;4927266;28;76554;-64
2021/03/12 11:12:01;;;;;;;;;;;18.90;38.60;;;;;;4926316;28;76145;-69
2021/03/12 11:14:30;;;;;;;;;;;18.90;39.60;;;;;;4935415;28;76495;-67
2021/03/12 11:16:56;;;;;;;;;;;18.90;37.70;;;;;;4920593;28;76298;-66
2021/03/12 11:19:22;;;;;;;;;;;18.80;38.30;;;;;;4931348;28;75704;-66
2021/03/12 11:21:48;;;;;;;;;;;18.80;38.70;;;;;;4924886;28;76073;-65
2021/03/12 11:24:13;;;;;;;;;;;18.80;38.20;;;;;;4920802;28;76461;-67
2021/03/12 11:26:40;;;;;;;;;;;18.90;39.00;;;;;;4925251;28;76041;-66
2021/03/12 11:29:05;;;;;;;;;;;18.90;35.20;;;;;;4929254;28;76756;-67
2021/03/12 11:31:31;;;;;;;;;;;18.80;37.90;;;;;;4932645;28;76596;-64
2021/03/12 11:33:57;;;;;;;;;;;18.60;35.00;;;;;;4925773;28;77354;-63
2021/03/12 11:36:22;;;;;;;;;;;18.50;36.70;;;;;;4924845;28;75786;-64
2021/03/12 11:38:48;;;;;;;;;;;18.40;37.40;;;;;;4933323;28;76684;-64
2021/03/12 11:41:13;;;;;;;;;;;18.40;38.40;;;;;;4930133;28;76458;-66
2021/03/12 11:43:39;;;;;;;;;;;18.40;37.70;;;;;;4926720;28;75836;-64
2021/03/12 11:46:04;;;;;;;;;;;18.40;37.60;;;;;;4931538;28;76306;-65
2021/03/12 11:48:30;;;;;;;;;;;18.40;38.40;;;;;;4936107;28;74990;-65
2021/03/12 11:50:57;;;;;;;;;;;18.70;37.80;;;;;;4933977;28;76159;-65
2021/03/12 11:53:23;;;;;;;;;;;19.00;37.80;;;;;;4935029;28;76340;-64
2021/03/12 11:55:48;;;;;;;;;;;19.20;35.80;;;;;;4937450;28;75024;-65
2021/03/12 11:58:14;;;;;;;;;;;19.80;36.00;;;;;;4925087;28;75724;-65
2021/03/12 12:00:39;;;;;;;;;;;22.60;33.10;;;;;;4924515;28;75920;-64
2021/03/12 12:03:05;;;;;;;;;;;24.20;29.60;;;;;;4919745;28;76327;-67
2021/03/12 12:05:31;;;;;;;;;;;23.80;30.40;;;;;;4929115;28;75947;-66
2021/03/12 12:07:57;;;;;;;;;;;24.40;27.70;;;;;;4933550;28;76228;-66
2021/03/12 12:10:23;;;;;;;;;;;24.90;27.60;;;;;;4929449;28;76476;-65
2021/03/12 12:12:55;;;;;;;;;;;26.70;25.70;;;;;;4939759;28;76226;-65
2021/03/12 12:15:20;;;;;;;;;;;29.20;24.00;;;;;;4936198;28;76477;-65
2021/03/12 12:17:46;;;;;;;;;;;31.40;20.60;;;;;;4926322;28;75990;-64
2021/03/12 12:20:13;;;;;;;;;;;31.90;19.80;;;;;;4935364;28;76074;-65
2021/03/12 12:22:38;;;;;;;;;;;33.00;19.60;;;;;;4921479;28;75769;-64
2021/03/12 12:25:04;;;;;;;;;;;33.50;17.90;;;;;;4920185;28;75738;-66
2021/03/12 12:27:30;;;;;;;;;;;34.30;18.70;;;;;;4930766;28;75800;-64
2021/03/12 12:29:56;;;;;;;;;;;35.60;17.80;;;;;;4946110;28;76542;-65
2021/03/12 12:32:22;;;;;;;;;;;35.00;17.70;;;;;;4928994;28;76727;-67
2021/03/12 12:34:47;;;;;;;;;;;34.40;17.70;;;;;;4925271;28;76277;-75
2021/03/12 12:37:13;;;;;;;;;;;34.20;19.30;;;;;;4928321;28;75927;-68
2021/03/12 12:39:38;;;;;;;;;;;33.40;18.90;;;;;;4931187;28;78003;-66
2021/03/12 12:42:04;;;;;;;;;;;33.50;18.10;;;;;;4937379;28;76675;-65
2021/03/12 12:44:30;;;;;;;;;;;33.90;19.20;;;;;;4921542;28;77389;-69
2021/03/12 12:46:55;;;;;;;;;;;33.50;19.60;;;;;;4926106;28;77044;-65
2021/03/12 12:49:21;;;;;;;;;;;33.00;20.20;;;;;;4929273;28;75376;-65
2021/03/12 12:51:47;;;;;;;;;;;32.90;17.90;;;;;;4927417;28;76929;-64
2021/03/12 12:54:13;;;;;;;;;;;32.90;18.90;;;;;;4930048;28;76980;-66
2021/03/12 12:56:39;;;;;;;;;;;31.80;20.20;;;;;;4946799;27;77201;-66
2021/03/12 12:59:04;;;;;;;;;;;31.40;20.00;;;;;;4925766;28;76233;-64
2021/03/12 13:01:30;;;;;;;;;;;30.70;18.40;;;;;;4927868;28;76521;-63
2021/03/12 13:03:56;;;;;;;;;;;29.50;19.50;;;;;;4919199;28;75929;-64
2021/03/12 13:06:21;;;;;;;;;;;30.10;20.40;;;;;;4929290;28;76156;-65
2021/03/12 13:08:47;;;;;;;;;;;31.10;18.30;;;;;;4935297;28;77751;-64
2021/03/12 13:11:13;;;;;;;;;;;29.90;19.30;;;;;;4926935;28;76240;-65
2021/03/12 13:13:38;;;;;;;;;;;28.50;21.10;;;;;;4930236;28;76366;-64
2021/03/12 13:16:04;;;;;;;;;;;28.50;20.90;;;;;;4927582;28;76578;-66
2021/03/12 13:18:31;;;;;;;;;;;29.50;20.90;;;;;;4917964;28;75825;-67
2021/03/12 13:20:58;;;;;;;;;;;31.70;19.90;;;;;;4919793;28;76331;-68
2021/03/12 13:23:25;;;;;;;;;;;32.60;18.80;;;;;;4916691;28;76257;-70
2021/03/12 13:25:51;;;;;;;;;;;33.60;19.30;;;;;;4918709;28;75987;-69
2021/03/12 13:28:17;;;;;;;;;;;34.20;18.90;;;;;;4932553;28;76289;-68
2021/03/12 13:30:43;;;;;;;;;;;34.50;18.70;;;;;;4922975;28;77132;-70
2021/03/12 13:33:09;;;;;;;;;;;35.00;18.20;;;;;;4931065;28;75696;-70
2021/03/12 13:35:35;;;;;;;;;;;35.50;16.30;;;;;;4928284;28;76401;-66
2021/03/12 13:38:01;;;;;;;;;;;35.30;16.90;;;;;;4920896;28;78573;-65
2021/03/12 13:40:27;;;;;;;;;;;35.00;18.50;;;;;;4928781;28;75815;-68
2021/03/12 13:42:56;;;;;;;;;;;35.20;15.70;;;;;;4925367;28;77197;-66
2021/03/12 13:45:22;;;;;;;;;;;32.40;16.90;;;;;;4930685;28;76437;-68
2021/03/12 13:47:47;;;;;;;;;;;31.10;18.50;;;;;;4927179;28;77212;-68
2021/03/12 13:50:13;;;;;;;;;;;30.10;20.00;;;;;;4926002;28;76617;-65
2021/03/12 13:52:39;;;;;;;;;;;30.00;20.50;;;;;;4934230;28;75820;-71
2021/03/12 13:55:08;;;;;;;;;;;31.50;19.90;;;;;;4919207;28;75768;-69
2021/03/12 13:57:34;;;;;;;;;;;32.90;19.10;;;;;;4930162;28;75877;-66
2021/03/12 14:00:00;;;;;;;;;;;32.80;19.00;;;;;;4929237;28;76350;-69
2021/03/12 14:02:25;;;;;;;;;;;33.60;18.50;;;;;;4948865;28;78108;-70
2021/03/12 14:04:51;;;;;;;;;;;34.00;18.00;;;;;;4951215;28;74598;-70
2021/03/12 14:07:17;;;;;;;;;;;32.30;18.70;;;;;;4949409;28;74585;-68
2021/03/12 14:09:42;;;;;;;;;;;31.40;19.70;;;;;;4951206;28;75426;-70
2021/03/12 14:12:08;;;;;;;;;;;30.20;20.30;;;;;;4951720;28;74419;-67
2021/03/12 14:14:34;;;;;;;;;;;29.70;21.40;;;;;;4951266;28;74595;-67
2021/03/12 14:16:59;;;;;;;;;;;30.90;20.60;;;;;;4950862;28;75197;-68